sensor_id;sensor_type;location;lat;lon;timestamp;P1;durP1;ratioP1;P2;durP2;ratioP2
65971;SDS011;52726;48.852;9.152;2023-07-24T00:00:08;10.32;;;5.65;;
65971;SDS011;52726;48.852;9.152;2023-07-24T00:02:34;18.13;;;5.93;;
65971;SDS011;52726;48.852;9.152;2023-07-24T00:04:59;11.95;;;4.78;;
65971;SDS011;52726;48.852;9.152;2023-07-24T00:07:25;12.57;;;5.57;;
65971;SDS011;52726;48.852;9.152;2023-07-24T00:09:50;10.80;;;5.57;;
65971;SDS011;52726;48.852;9.152;2023-07-24T00:12:15;13.23;;;5.93;;
65971;SDS011;52726;48.852;9.152;2023-07-24T00:14:41;9.63;;;4.82;;
65971;SDS011;52726;48.852;9.152;2023-07-24T00:17:06;10.82;;;5.40;;
65971;SDS011;52726;48.852;9.152;2023-07-24T00:19:32;11.60;;;5.63;;
65971;SDS011;52726;48.852;9.152;2023-07-24T00:21:57;9.65;;;5.47;;
65971;SDS011;52726;48.852;9.152;2023-07-24T00:24:22;10.07;;;5.47;;
65971;SDS011;52726;48.852;9.152;2023-07-24T00:26:47;8.77;;;4.68;;
65971;SDS011;52726;48.852;9.152;2023-07-24T00:29:13;14.50;;;5.47;;
65971;SDS011;52726;48.852;9.152;2023-07-24T00:31:38;10.23;;;5.03;;
65971;SDS011;52726;48.852;9.152;2023-07-24T00:34:03;12.82;;;5.65;;
65971;SDS011;52726;48.852;9.152;2023-07-24T00:36:29;11.85;;;5.40;;
65971;SDS011;52726;48.852;9.152;2023-07-24T00:38:54;11.02;;;5.47;;
65971;SDS011;52726;48.852;9.152;2023-07-24T00:44:57;10.55;;;5.07;;
65971;SDS011;52726;48.852;9.152;2023-07-24T00:47:22;10.38;;;4.88;;
65971;SDS011;52726;48.852;9.152;2023-07-24T00:49:50;9.70;;;5.05;;
65971;SDS011;52726;48.852;9.152;2023-07-24T00:52:15;9.90;;;5.15;;
65971;SDS011;52726;48.852;9.152;2023-07-24T00:54:41;9.27;;;5.18;;
65971;SDS011;52726;48.852;9.152;2023-07-24T00:57:08;11.98;;;6.05;;
65971;SDS011;52726;48.852;9.152;2023-07-24T00:59:33;12.63;;;5.68;;
65971;SDS011;52726;48.852;9.152;2023-07-24T01:01:59;8.45;;;4.80;;
65971;SDS011;52726;48.852;9.152;2023-07-24T01:04:25;9.05;;;5.32;;
65971;SDS011;52726;48.852;9.152;2023-07-24T01:06:50;7.43;;;4.45;;
65971;SDS011;52726;48.852;9.152;2023-07-24T01:09:16;8.77;;;4.95;;
65971;SDS011;52726;48.852;9.152;2023-07-24T01:11:51;10.27;;;5.68;;
65971;SDS011;52726;48.852;9.152;2023-07-24T01:17:07;10.80;;;5.57;;
65971;SDS011;52726;48.852;9.152;2023-07-24T01:19:40;10.07;;;5.50;;
65971;SDS011;52726;48.852;9.152;2023-07-24T01:27:30;7.80;;;5.07;;
65971;SDS011;52726;48.852;9.152;2023-07-24T01:29:55;11.98;;;5.60;;
65971;SDS011;52726;48.852;9.152;2023-07-24T01:32:20;10.45;;;5.43;;
65971;SDS011;52726;48.852;9.152;2023-07-24T01:34:47;9.30;;;5.35;;
65971;SDS011;52726;48.852;9.152;2023-07-24T01:37:13;11.52;;;5.72;;
65971;SDS011;52726;48.852;9.152;2023-07-24T01:39:43;9.07;;;5.30;;
65971;SDS011;52726;48.852;9.152;2023-07-24T01:42:09;9.93;;;5.50;;
65971;SDS011;52726;48.852;9.152;2023-07-24T01:44:35;9.38;;;4.93;;
65971;SDS011;52726;48.852;9.152;2023-07-24T01:47:00;11.45;;;5.38;;
65971;SDS011;52726;48.852;9.152;2023-07-24T01:49:26;10.88;;;5.13;;
65971;SDS011;52726;48.852;9.152;2023-07-24T01:51:51;9.07;;;4.95;;
65971;SDS011;52726;48.852;9.152;2023-07-24T01:54:16;8.10;;;5.07;;
65971;SDS011;52726;48.852;9.152;2023-07-24T01:56:42;12.30;;;5.70;;
65971;SDS011;52726;48.852;9.152;2023-07-24T01:59:08;11.57;;;4.85;;
65971;SDS011;52726;48.852;9.152;2023-07-24T02:01:34;8.38;;;5.10;;
65971;SDS011;52726;48.852;9.152;2023-07-24T02:03:59;11.00;;;5.15;;
65971;SDS011;52726;48.852;9.152;2023-07-24T02:06:25;8.90;;;4.95;;
65971;SDS011;52726;48.852;9.152;2023-07-24T02:08:50;9.40;;;5.22;;
65971;SDS011;52726;48.852;9.152;2023-07-24T02:11:17;9.18;;;5.18;;
65971;SDS011;52726;48.852;9.152;2023-07-24T02:13:43;7.32;;;4.57;;
65971;SDS011;52726;48.852;9.152;2023-07-24T02:16:10;9.55;;;5.55;;
65971;SDS011;52726;48.852;9.152;2023-07-24T02:18:36;9.85;;;4.82;;
65971;SDS011;52726;48.852;9.152;2023-07-24T02:21:02;8.02;;;5.18;;
65971;SDS011;52726;48.852;9.152;2023-07-24T02:23:28;12.63;;;5.28;;
65971;SDS011;52726;48.852;9.152;2023-07-24T02:25:53;9.13;;;5.13;;
65971;SDS011;52726;48.852;9.152;2023-07-24T02:28:18;8.40;;;5.10;;
65971;SDS011;52726;48.852;9.152;2023-07-24T02:30:44;11.00;;;5.90;;
65971;SDS011;52726;48.852;9.152;2023-07-24T02:33:11;11.10;;;5.80;;
65971;SDS011;52726;48.852;9.152;2023-07-24T02:35:40;8.98;;;5.13;;
65971;SDS011;52726;48.852;9.152;2023-07-24T02:38:06;9.27;;;5.50;;
65971;SDS011;52726;48.852;9.152;2023-07-24T02:40:32;9.35;;;4.93;;
65971;SDS011;52726;48.852;9.152;2023-07-24T02:42:57;8.98;;;4.90;;
65971;SDS011;52726;48.852;9.152;2023-07-24T02:45:23;11.02;;;4.80;;
65971;SDS011;52726;48.852;9.152;2023-07-24T02:47:48;8.05;;;4.75;;
65971;SDS011;52726;48.852;9.152;2023-07-24T02:50:13;11.00;;;5.28;;
65971;SDS011;52726;48.852;9.152;2023-07-24T02:52:39;8.68;;;5.13;;
65971;SDS011;52726;48.852;9.152;2023-07-24T02:55:04;9.65;;;4.97;;
65971;SDS011;52726;48.852;9.152;2023-07-24T02:57:30;9.55;;;5.38;;
65971;SDS011;52726;48.852;9.152;2023-07-24T02:59:55;10.90;;;5.13;;
65971;SDS011;52726;48.852;9.152;2023-07-24T03:02:21;8.98;;;4.82;;
65971;SDS011;52726;48.852;9.152;2023-07-24T03:04:46;10.65;;;5.40;;
65971;SDS011;52726;48.852;9.152;2023-07-24T03:07:11;12.50;;;5.10;;
65971;SDS011;52726;48.852;9.152;2023-07-24T03:09:37;14.65;;;5.80;;
65971;SDS011;52726;48.852;9.152;2023-07-24T03:12:02;13.48;;;5.53;;
65971;SDS011;52726;48.852;9.152;2023-07-24T03:14:28;8.55;;;5.28;;
65971;SDS011;52726;48.852;9.152;2023-07-24T03:16:53;8.80;;;5.50;;
65971;SDS011;52726;48.852;9.152;2023-07-24T03:19:19;7.72;;;4.93;;
65971;SDS011;52726;48.852;9.152;2023-07-24T03:21:45;9.77;;;5.07;;
65971;SDS011;52726;48.852;9.152;2023-07-24T03:24:10;12.07;;;5.20;;
65971;SDS011;52726;48.852;9.152;2023-07-24T03:26:36;8.85;;;4.55;;
65971;SDS011;52726;48.852;9.152;2023-07-24T03:29:01;10.55;;;5.50;;
65971;SDS011;52726;48.852;9.152;2023-07-24T03:31:26;11.45;;;5.18;;
65971;SDS011;52726;48.852;9.152;2023-07-24T03:33:52;9.98;;;5.95;;
65971;SDS011;52726;48.852;9.152;2023-07-24T03:36:17;10.52;;;4.97;;
65971;SDS011;52726;48.852;9.152;2023-07-24T03:38:42;9.50;;;5.07;;
65971;SDS011;52726;48.852;9.152;2023-07-24T03:41:08;9.43;;;5.60;;
65971;SDS011;52726;48.852;9.152;2023-07-24T03:43:33;10.57;;;5.43;;
65971;SDS011;52726;48.852;9.152;2023-07-24T03:45:58;10.60;;;5.60;;
65971;SDS011;52726;48.852;9.152;2023-07-24T03:48:24;8.65;;;5.15;;
65971;SDS011;52726;48.852;9.152;2023-07-24T03:50:50;10.48;;;5.85;;
65971;SDS011;52726;48.852;9.152;2023-07-24T03:53:22;10.20;;;5.50;;
65971;SDS011;52726;48.852;9.152;2023-07-24T03:55:47;7.82;;;5.07;;
65971;SDS011;52726;48.852;9.152;2023-07-24T03:58:13;10.25;;;4.75;;
65971;SDS011;52726;48.852;9.152;2023-07-24T04:00:38;8.95;;;5.22;;
65971;SDS011;52726;48.852;9.152;2023-07-24T04:03:03;11.82;;;6.10;;
65971;SDS011;52726;48.852;9.152;2023-07-24T04:05:29;12.00;;;5.82;;
65971;SDS011;52726;48.852;9.152;2023-07-24T04:07:54;9.63;;;5.22;;
65971;SDS011;52726;48.852;9.152;2023-07-24T04:10:20;10.68;;;6.15;;
65971;SDS011;52726;48.852;9.152;2023-07-24T04:12:45;10.88;;;5.43;;
65971;SDS011;52726;48.852;9.152;2023-07-24T04:15:10;12.68;;;5.47;;
65971;SDS011;52726;48.852;9.152;2023-07-24T04:17:36;11.77;;;5.30;;
65971;SDS011;52726;48.852;9.152;2023-07-24T04:20:03;9.30;;;5.35;;
65971;SDS011;52726;48.852;9.152;2023-07-24T04:22:29;9.07;;;5.65;;
65971;SDS011;52726;48.852;9.152;2023-07-24T04:24:55;10.23;;;5.20;;
65971;SDS011;52726;48.852;9.152;2023-07-24T04:27:20;8.82;;;5.18;;
65971;SDS011;52726;48.852;9.152;2023-07-24T04:29:46;11.77;;;5.32;;
65971;SDS011;52726;48.852;9.152;2023-07-24T04:32:11;10.55;;;5.35;;
65971;SDS011;52726;48.852;9.152;2023-07-24T04:34:36;10.10;;;5.78;;
65971;SDS011;52726;48.852;9.152;2023-07-24T04:37:02;9.38;;;5.20;;
65971;SDS011;52726;48.852;9.152;2023-07-24T04:39:28;9.65;;;5.30;;
65971;SDS011;52726;48.852;9.152;2023-07-24T04:41:53;9.68;;;5.45;;
65971;SDS011;52726;48.852;9.152;2023-07-24T04:44:18;8.70;;;5.47;;
65971;SDS011;52726;48.852;9.152;2023-07-24T04:46:44;9.13;;;5.65;;
65971;SDS011;52726;48.852;9.152;2023-07-24T04:49:09;10.95;;;5.30;;
65971;SDS011;52726;48.852;9.152;2023-07-24T04:51:34;8.38;;;5.03;;
65971;SDS011;52726;48.852;9.152;2023-07-24T04:53:59;10.43;;;5.55;;
65971;SDS011;52726;48.852;9.152;2023-07-24T04:56:25;9.27;;;5.05;;
65971;SDS011;52726;48.852;9.152;2023-07-24T04:58:50;10.15;;;5.30;;
65971;SDS011;52726;48.852;9.152;2023-07-24T05:01:15;9.43;;;4.57;;
65971;SDS011;52726;48.852;9.152;2023-07-24T05:03:41;10.00;;;5.18;;
65971;SDS011;52726;48.852;9.152;2023-07-24T05:06:06;8.43;;;5.03;;
65971;SDS011;52726;48.852;9.152;2023-07-24T05:08:31;10.65;;;6.40;;
65971;SDS011;52726;48.852;9.152;2023-07-24T05:10:57;11.13;;;4.97;;
65971;SDS011;52726;48.852;9.152;2023-07-24T05:13:24;9.88;;;5.28;;
65971;SDS011;52726;48.852;9.152;2023-07-24T05:15:50;9.20;;;5.40;;
65971;SDS011;52726;48.852;9.152;2023-07-24T05:18:16;9.73;;;5.50;;
65971;SDS011;52726;48.852;9.152;2023-07-24T05:20:48;12.82;;;6.35;;
65971;SDS011;52726;48.852;9.152;2023-07-24T05:23:16;12.10;;;5.82;;
65971;SDS011;52726;48.852;9.152;2023-07-24T05:25:41;10.23;;;5.70;;
65971;SDS011;52726;48.852;9.152;2023-07-24T05:28:06;15.40;;;5.82;;
65971;SDS011;52726;48.852;9.152;2023-07-24T05:30:32;11.23;;;5.50;;
65971;SDS011;52726;48.852;9.152;2023-07-24T05:32:58;9.18;;;5.32;;
65971;SDS011;52726;48.852;9.152;2023-07-24T05:35:23;10.73;;;6.28;;
65971;SDS011;52726;48.852;9.152;2023-07-24T05:37:48;9.98;;;5.50;;
65971;SDS011;52726;48.852;9.152;2023-07-24T05:40:14;9.18;;;5.35;;
65971;SDS011;52726;48.852;9.152;2023-07-24T05:42:39;11.82;;;5.70;;
65971;SDS011;52726;48.852;9.152;2023-07-24T05:45:06;11.05;;;5.72;;
65971;SDS011;52726;48.852;9.152;2023-07-24T05:47:34;14.45;;;6.03;;
65971;SDS011;52726;48.852;9.152;2023-07-24T05:49:59;11.75;;;5.75;;
65971;SDS011;52726;48.852;9.152;2023-07-24T05:52:25;15.60;;;6.50;;
65971;SDS011;52726;48.852;9.152;2023-07-24T05:54:50;10.95;;;6.88;;
65971;SDS011;52726;48.852;9.152;2023-07-24T05:57:15;13.32;;;6.15;;
65971;SDS011;52726;48.852;9.152;2023-07-24T05:59:41;14.13;;;6.53;;
65971;SDS011;52726;48.852;9.152;2023-07-24T06:02:06;14.25;;;6.70;;
65971;SDS011;52726;48.852;9.152;2023-07-24T06:04:33;10.82;;;6.07;;
65971;SDS011;52726;48.852;9.152;2023-07-24T06:06:58;11.70;;;5.82;;
65971;SDS011;52726;48.852;9.152;2023-07-24T06:09:24;13.85;;;5.88;;
65971;SDS011;52726;48.852;9.152;2023-07-24T06:11:49;15.88;;;6.40;;
65971;SDS011;52726;48.852;9.152;2023-07-24T06:14:14;12.77;;;5.78;;
65971;SDS011;52726;48.852;9.152;2023-07-24T06:16:40;13.57;;;5.45;;
65971;SDS011;52726;48.852;9.152;2023-07-24T06:19:05;14.80;;;6.22;;
65971;SDS011;52726;48.852;9.152;2023-07-24T06:21:31;11.98;;;5.22;;
65971;SDS011;52726;48.852;9.152;2023-07-24T06:23:56;17.40;;;6.50;;
65971;SDS011;52726;48.852;9.152;2023-07-24T06:26:21;9.52;;;6.00;;
65971;SDS011;52726;48.852;9.152;2023-07-24T06:28:47;10.63;;;4.78;;
65971;SDS011;52726;48.852;9.152;2023-07-24T06:31:12;12.07;;;5.90;;
65971;SDS011;52726;48.852;9.152;2023-07-24T06:33:42;10.68;;;6.00;;
65971;SDS011;52726;48.852;9.152;2023-07-24T06:36:12;13.65;;;5.72;;
65971;SDS011;52726;48.852;9.152;2023-07-24T06:38:40;10.95;;;6.15;;
65971;SDS011;52726;48.852;9.152;2023-07-24T06:41:07;9.60;;;5.80;;
65971;SDS011;52726;48.852;9.152;2023-07-24T06:43:32;9.45;;;5.25;;
65971;SDS011;52726;48.852;9.152;2023-07-24T06:45:58;13.15;;;5.38;;
65971;SDS011;52726;48.852;9.152;2023-07-24T06:48:23;9.43;;;5.32;;
65971;SDS011;52726;48.852;9.152;2023-07-24T06:50:48;13.98;;;5.60;;
65971;SDS011;52726;48.852;9.152;2023-07-24T06:53:14;8.77;;;5.65;;
65971;SDS011;52726;48.852;9.152;2023-07-24T06:55:39;9.55;;;5.55;;
65971;SDS011;52726;48.852;9.152;2023-07-24T06:58:06;8.77;;;5.50;;
65971;SDS011;52726;48.852;9.152;2023-07-24T07:00:31;8.65;;;5.10;;
65971;SDS011;52726;48.852;9.152;2023-07-24T07:02:56;10.77;;;5.43;;
65971;SDS011;52726;48.852;9.152;2023-07-24T07:05:22;17.65;;;6.18;;
65971;SDS011;52726;48.852;9.152;2023-07-24T07:07:47;9.98;;;5.68;;
65971;SDS011;52726;48.852;9.152;2023-07-24T07:10:12;9.63;;;5.03;;
65971;SDS011;52726;48.852;9.152;2023-07-24T07:12:38;8.98;;;5.45;;
65971;SDS011;52726;48.852;9.152;2023-07-24T07:15:03;11.20;;;5.85;;
65971;SDS011;52726;48.852;9.152;2023-07-24T07:17:29;11.55;;;5.28;;
65971;SDS011;52726;48.852;9.152;2023-07-24T07:19:54;10.27;;;5.75;;
65971;SDS011;52726;48.852;9.152;2023-07-24T07:22:21;11.70;;;5.55;;
65971;SDS011;52726;48.852;9.152;2023-07-24T07:24:46;20.15;;;5.50;;
65971;SDS011;52726;48.852;9.152;2023-07-24T07:27:12;13.18;;;5.95;;
65971;SDS011;52726;48.852;9.152;2023-07-24T07:29:37;9.82;;;5.45;;
65971;SDS011;52726;48.852;9.152;2023-07-24T07:32:02;11.05;;;6.00;;
65971;SDS011;52726;48.852;9.152;2023-07-24T07:34:28;10.75;;;5.57;;
65971;SDS011;52726;48.852;9.152;2023-07-24T07:36:53;12.90;;;5.25;;
65971;SDS011;52726;48.852;9.152;2023-07-24T07:39:19;10.68;;;5.20;;
65971;SDS011;52726;48.852;9.152;2023-07-24T07:41:44;11.75;;;5.68;;
65971;SDS011;52726;48.852;9.152;2023-07-24T07:44:09;11.63;;;6.28;;
65971;SDS011;52726;48.852;9.152;2023-07-24T07:46:35;13.30;;;5.43;;
65971;SDS011;52726;48.852;9.152;2023-07-24T07:49:00;15.60;;;6.65;;
65971;SDS011;52726;48.852;9.152;2023-07-24T07:51:25;10.57;;;5.55;;
65971;SDS011;52726;48.852;9.152;2023-07-24T07:53:52;9.80;;;6.03;;
65971;SDS011;52726;48.852;9.152;2023-07-24T07:56:17;11.95;;;4.95;;
65971;SDS011;52726;48.852;9.152;2023-07-24T07:58:42;10.43;;;5.22;;
65971;SDS011;52726;48.852;9.152;2023-07-24T08:01:08;10.05;;;5.40;;
65971;SDS011;52726;48.852;9.152;2023-07-24T08:03:33;11.32;;;5.20;;
65971;SDS011;52726;48.852;9.152;2023-07-24T08:05:59;12.15;;;5.20;;
65971;SDS011;52726;48.852;9.152;2023-07-24T08:08:25;10.65;;;5.03;;
65971;SDS011;52726;48.852;9.152;2023-07-24T08:10:50;10.07;;;5.10;;
65971;SDS011;52726;48.852;9.152;2023-07-24T08:13:16;9.23;;;5.57;;
65971;SDS011;52726;48.852;9.152;2023-07-24T08:15:41;13.43;;;5.80;;
65971;SDS011;52726;48.852;9.152;2023-07-24T08:18:06;10.13;;;5.43;;
65971;SDS011;52726;48.852;9.152;2023-07-24T08:20:34;13.88;;;5.40;;
65971;SDS011;52726;48.852;9.152;2023-07-24T08:23:00;10.82;;;5.03;;
65971;SDS011;52726;48.852;9.152;2023-07-24T08:25:26;13.55;;;5.97;;
65971;SDS011;52726;48.852;9.152;2023-07-24T08:27:51;9.48;;;5.20;;
65971;SDS011;52726;48.852;9.152;2023-07-24T08:30:17;12.25;;;6.20;;
65971;SDS011;52726;48.852;9.152;2023-07-24T08:32:42;10.65;;;5.25;;
65971;SDS011;52726;48.852;9.152;2023-07-24T08:35:08;10.50;;;6.30;;
65971;SDS011;52726;48.852;9.152;2023-07-24T08:37:33;14.88;;;6.88;;
65971;SDS011;52726;48.852;9.152;2023-07-24T08:39:59;10.00;;;5.63;;
65971;SDS011;52726;48.852;9.152;2023-07-24T08:42:24;11.82;;;5.40;;
65971;SDS011;52726;48.852;9.152;2023-07-24T08:44:50;10.40;;;6.07;;
65971;SDS011;52726;48.852;9.152;2023-07-24T08:47:18;10.25;;;5.85;;
65971;SDS011;52726;48.852;9.152;2023-07-24T08:49:44;12.90;;;6.47;;
65971;SDS011;52726;48.852;9.152;2023-07-24T08:52:11;11.23;;;5.97;;
65971;SDS011;52726;48.852;9.152;2023-07-24T08:54:37;12.38;;;5.97;;
65971;SDS011;52726;48.852;9.152;2023-07-24T08:57:04;13.35;;;6.35;;
65971;SDS011;52726;48.852;9.152;2023-07-24T08:59:33;13.02;;;6.50;;
65971;SDS011;52726;48.852;9.152;2023-07-24T09:02:00;10.63;;;5.75;;
65971;SDS011;52726;48.852;9.152;2023-07-24T09:04:25;11.10;;;5.63;;
65971;SDS011;52726;48.852;9.152;2023-07-24T09:06:51;11.23;;;6.03;;
65971;SDS011;52726;48.852;9.152;2023-07-24T09:09:17;12.68;;;5.97;;
65971;SDS011;52726;48.852;9.152;2023-07-24T09:11:46;12.95;;;5.85;;
65971;SDS011;52726;48.852;9.152;2023-07-24T09:14:19;13.85;;;5.85;;
65971;SDS011;52726;48.852;9.152;2023-07-24T09:16:49;14.73;;;6.50;;
65971;SDS011;52726;48.852;9.152;2023-07-24T09:19:18;10.80;;;6.60;;
65971;SDS011;52726;48.852;9.152;2023-07-24T09:21:48;10.90;;;5.80;;
65971;SDS011;52726;48.852;9.152;2023-07-24T09:24:14;9.40;;;5.15;;
65971;SDS011;52726;48.852;9.152;2023-07-24T09:26:51;9.02;;;5.13;;
65971;SDS011;52726;48.852;9.152;2023-07-24T09:29:18;11.50;;;5.30;;
65971;SDS011;52726;48.852;9.152;2023-07-24T09:31:44;10.48;;;5.65;;
65971;SDS011;52726;48.852;9.152;2023-07-24T09:34:14;8.10;;;5.28;;
65971;SDS011;52726;48.852;9.152;2023-07-24T09:36:46;10.77;;;5.38;;
65971;SDS011;52726;48.852;9.152;2023-07-24T09:39:11;13.85;;;4.93;;
65971;SDS011;52726;48.852;9.152;2023-07-24T09:41:40;11.52;;;5.45;;
65971;SDS011;52726;48.852;9.152;2023-07-24T09:44:06;11.43;;;6.20;;
65971;SDS011;52726;48.852;9.152;2023-07-24T09:46:32;11.38;;;5.68;;
65971;SDS011;52726;48.852;9.152;2023-07-24T09:48:58;13.20;;;5.38;;
65971;SDS011;52726;48.852;9.152;2023-07-24T09:51:23;14.27;;;6.10;;
65971;SDS011;52726;48.852;9.152;2023-07-24T09:53:55;10.73;;;5.35;;
65971;SDS011;52726;48.852;9.152;2023-07-24T09:56:25;12.60;;;6.15;;
65971;SDS011;52726;48.852;9.152;2023-07-24T09:58:52;11.07;;;5.65;;
65971;SDS011;52726;48.852;9.152;2023-07-24T10:01:21;11.20;;;5.57;;
65971;SDS011;52726;48.852;9.152;2023-07-24T10:03:47;9.88;;;5.80;;
65971;SDS011;52726;48.852;9.152;2023-07-24T10:06:14;12.20;;;5.18;;
65971;SDS011;52726;48.852;9.152;2023-07-24T10:08:41;10.85;;;5.30;;
65971;SDS011;52726;48.852;9.152;2023-07-24T10:11:08;10.63;;;4.20;;
65971;SDS011;52726;48.852;9.152;2023-07-24T10:13:34;11.63;;;5.43;;
65971;SDS011;52726;48.852;9.152;2023-07-24T10:16:02;7.72;;;4.20;;
65971;SDS011;52726;48.852;9.152;2023-07-24T10:18:30;6.90;;;4.25;;
65971;SDS011;52726;48.852;9.152;2023-07-24T10:21:03;8.95;;;4.82;;
65971;SDS011;52726;48.852;9.152;2023-07-24T10:23:29;7.03;;;4.60;;
65971;SDS011;52726;48.852;9.152;2023-07-24T10:25:55;9.23;;;4.47;;
65971;SDS011;52726;48.852;9.152;2023-07-24T10:28:29;9.85;;;4.97;;
65971;SDS011;52726;48.852;9.152;2023-07-24T10:30:56;9.63;;;4.55;;
65971;SDS011;52726;48.852;9.152;2023-07-24T10:33:22;6.78;;;4.10;;
65971;SDS011;52726;48.852;9.152;2023-07-24T10:35:49;8.20;;;4.00;;
65971;SDS011;52726;48.852;9.152;2023-07-24T10:38:18;7.32;;;4.45;;
65971;SDS011;52726;48.852;9.152;2023-07-24T10:40:45;8.48;;;4.40;;
65971;SDS011;52726;48.852;9.152;2023-07-24T10:43:18;8.73;;;4.50;;
65971;SDS011;52726;48.852;9.152;2023-07-24T10:45:46;7.55;;;3.95;;
65971;SDS011;52726;48.852;9.152;2023-07-24T10:48:15;8.68;;;4.50;;
65971;SDS011;52726;48.852;9.152;2023-07-24T10:50:42;6.90;;;4.03;;
65971;SDS011;52726;48.852;9.152;2023-07-24T10:53:10;21.77;;;4.80;;
65971;SDS011;52726;48.852;9.152;2023-07-24T10:55:36;11.85;;;4.72;;
65971;SDS011;52726;48.852;9.152;2023-07-24T10:58:01;8.05;;;3.92;;
65971;SDS011;52726;48.852;9.152;2023-07-24T11:00:27;8.13;;;4.57;;
65971;SDS011;52726;48.852;9.152;2023-07-24T11:02:53;7.63;;;4.40;;
65971;SDS011;52726;48.852;9.152;2023-07-24T11:05:20;9.38;;;4.30;;
65971;SDS011;52726;48.852;9.152;2023-07-24T11:07:46;7.20;;;4.55;;
65971;SDS011;52726;48.852;9.152;2023-07-24T11:10:15;11.23;;;4.70;;
65971;SDS011;52726;48.852;9.152;2023-07-24T11:12:44;7.97;;;4.43;;
65971;SDS011;52726;48.852;9.152;2023-07-24T11:15:11;8.10;;;4.50;;
65971;SDS011;52726;48.852;9.152;2023-07-24T11:17:38;12.27;;;4.50;;
65971;SDS011;52726;48.852;9.152;2023-07-24T11:20:11;8.50;;;4.32;;
65971;SDS011;52726;48.852;9.152;2023-07-24T11:22:38;7.18;;;4.57;;
65971;SDS011;52726;48.852;9.152;2023-07-24T11:25:04;8.18;;;4.88;;
65971;SDS011;52726;48.852;9.152;2023-07-24T11:27:31;7.93;;;4.78;;
65971;SDS011;52726;48.852;9.152;2023-07-24T11:29:57;8.65;;;4.55;;
65971;SDS011;52726;48.852;9.152;2023-07-24T11:32:22;7.97;;;4.68;;
65971;SDS011;52726;48.852;9.152;2023-07-24T11:34:48;8.77;;;5.10;;
65971;SDS011;52726;48.852;9.152;2023-07-24T11:37:15;7.95;;;4.63;;
65971;SDS011;52726;48.852;9.152;2023-07-24T11:39:41;8.25;;;4.82;;
65971;SDS011;52726;48.852;9.152;2023-07-24T11:42:07;7.65;;;4.25;;
65971;SDS011;52726;48.852;9.152;2023-07-24T11:44:32;7.60;;;4.73;;
65971;SDS011;52726;48.852;9.152;2023-07-24T11:47:02;7.85;;;4.65;;
65971;SDS011;52726;48.852;9.152;2023-07-24T11:49:29;7.60;;;4.63;;
65971;SDS011;52726;48.852;9.152;2023-07-24T11:52:02;7.43;;;4.10;;
65971;SDS011;52726;48.852;9.152;2023-07-24T11:54:28;10.73;;;5.33;;
65971;SDS011;52726;48.852;9.152;2023-07-24T11:56:54;9.82;;;4.63;;
65971;SDS011;52726;48.852;9.152;2023-07-24T11:59:19;7.97;;;4.15;;
65971;SDS011;52726;48.852;9.152;2023-07-24T12:01:47;6.35;;;4.22;;
65971;SDS011;52726;48.852;9.152;2023-07-24T12:07:11;7.55;;;4.43;;
65971;SDS011;52726;48.852;9.152;2023-07-24T12:09:37;9.02;;;4.53;;
65971;SDS011;52726;48.852;9.152;2023-07-24T12:12:06;7.75;;;4.15;;
65971;SDS011;52726;48.852;9.152;2023-07-24T12:14:36;8.13;;;4.13;;
65971;SDS011;52726;48.852;9.152;2023-07-24T12:17:02;9.68;;;4.18;;
65971;SDS011;52726;48.852;9.152;2023-07-24T12:19:28;8.30;;;3.85;;
65971;SDS011;52726;48.852;9.152;2023-07-24T12:21:53;7.55;;;4.60;;
65971;SDS011;52726;48.852;9.152;2023-07-24T12:24:19;8.02;;;4.28;;
65971;SDS011;52726;48.852;9.152;2023-07-24T12:26:44;6.88;;;4.13;;
65971;SDS011;52726;48.852;9.152;2023-07-24T12:29:10;8.98;;;4.68;;
65971;SDS011;52726;48.852;9.152;2023-07-24T12:31:41;6.63;;;3.97;;
65971;SDS011;52726;48.852;9.152;2023-07-24T12:34:07;7.63;;;3.80;;
65971;SDS011;52726;48.852;9.152;2023-07-24T12:36:32;5.93;;;3.95;;
65971;SDS011;52726;48.852;9.152;2023-07-24T12:38:58;6.45;;;4.18;;
65971;SDS011;52726;48.852;9.152;2023-07-24T12:41:23;9.65;;;4.43;;
65971;SDS011;52726;48.852;9.152;2023-07-24T12:43:48;6.72;;;4.05;;
65971;SDS011;52726;48.852;9.152;2023-07-24T12:46:14;6.45;;;4.18;;
65971;SDS011;52726;48.852;9.152;2023-07-24T12:48:39;5.38;;;3.97;;
65971;SDS011;52726;48.852;9.152;2023-07-24T12:51:05;6.18;;;3.90;;
65971;SDS011;52726;48.852;9.152;2023-07-24T12:53:30;7.65;;;4.18;;
65971;SDS011;52726;48.852;9.152;2023-07-24T12:55:55;7.22;;;4.40;;
65971;SDS011;52726;48.852;9.152;2023-07-24T12:58:21;7.43;;;3.83;;
65971;SDS011;52726;48.852;9.152;2023-07-24T13:00:46;6.88;;;3.80;;
65971;SDS011;52726;48.852;9.152;2023-07-24T13:03:12;6.57;;;3.63;;
65971;SDS011;52726;48.852;9.152;2023-07-24T13:05:38;7.55;;;3.60;;
65971;SDS011;52726;48.852;9.152;2023-07-24T13:08:03;9.55;;;4.43;;
65971;SDS011;52726;48.852;9.152;2023-07-24T13:10:29;9.38;;;4.05;;
65971;SDS011;52726;48.852;9.152;2023-07-24T13:12:55;6.10;;;4.07;;
65971;SDS011;52726;48.852;9.152;2023-07-24T13:15:21;8.27;;;3.95;;
65971;SDS011;52726;48.852;9.152;2023-07-24T13:17:47;14.40;;;4.30;;
65971;SDS011;52726;48.852;9.152;2023-07-24T13:20:13;6.00;;;4.07;;
65971;SDS011;52726;48.852;9.152;2023-07-24T13:22:38;11.73;;;4.63;;
65971;SDS011;52726;48.852;9.152;2023-07-24T13:25:04;9.63;;;4.55;;
65971;SDS011;52726;48.852;9.152;2023-07-24T13:27:29;8.32;;;4.10;;
65971;SDS011;52726;48.852;9.152;2023-07-24T13:29:55;7.53;;;3.83;;
65971;SDS011;52726;48.852;9.152;2023-07-24T13:32:20;6.78;;;3.90;;
65971;SDS011;52726;48.852;9.152;2023-07-24T13:34:50;9.63;;;4.63;;
65971;SDS011;52726;48.852;9.152;2023-07-24T13:37:30;8.50;;;4.30;;
65971;SDS011;52726;48.852;9.152;2023-07-24T13:39:55;7.63;;;4.53;;
65971;SDS011;52726;48.852;9.152;2023-07-24T13:42:21;7.45;;;4.50;;
65971;SDS011;52726;48.852;9.152;2023-07-24T13:44:46;7.78;;;4.22;;
65971;SDS011;52726;48.852;9.152;2023-07-24T13:47:12;11.23;;;4.60;;
65971;SDS011;52726;48.852;9.152;2023-07-24T13:49:37;8.32;;;4.32;;
65971;SDS011;52726;48.852;9.152;2023-07-24T13:52:03;10.48;;;4.97;;
65971;SDS011;52726;48.852;9.152;2023-07-24T13:54:28;8.50;;;4.50;;
65971;SDS011;52726;48.852;9.152;2023-07-24T13:56:53;7.30;;;4.32;;
65971;SDS011;52726;48.852;9.152;2023-07-24T13:59:19;9.60;;;4.88;;
65971;SDS011;52726;48.852;9.152;2023-07-24T14:01:44;7.85;;;5.07;;
65971;SDS011;52726;48.852;9.152;2023-07-24T14:04:10;10.70;;;4.45;;
65971;SDS011;52726;48.852;9.152;2023-07-24T14:06:37;11.63;;;4.20;;
65971;SDS011;52726;48.852;9.152;2023-07-24T14:09:02;6.05;;;3.97;;
65971;SDS011;52726;48.852;9.152;2023-07-24T14:11:28;5.85;;;3.90;;
65971;SDS011;52726;48.852;9.152;2023-07-24T14:13:54;7.25;;;3.75;;
65971;SDS011;52726;48.852;9.152;2023-07-24T14:16:19;5.18;;;3.35;;
65971;SDS011;52726;48.852;9.152;2023-07-24T14:18:45;5.47;;;3.58;;
65971;SDS011;52726;48.852;9.152;2023-07-24T14:21:10;5.60;;;3.20;;
65971;SDS011;52726;48.852;9.152;2023-07-24T14:23:36;6.13;;;3.83;;
65971;SDS011;52726;48.852;9.152;2023-07-24T14:26:01;8.38;;;3.60;;
65971;SDS011;52726;48.852;9.152;2023-07-24T14:28:26;5.88;;;3.50;;
65971;SDS011;52726;48.852;9.152;2023-07-24T14:30:52;5.70;;;3.40;;
65971;SDS011;52726;48.852;9.152;2023-07-24T14:33:17;5.22;;;3.50;;
65971;SDS011;52726;48.852;9.152;2023-07-24T14:35:43;5.40;;;3.22;;
65971;SDS011;52726;48.852;9.152;2023-07-24T14:38:09;4.32;;;2.80;;
65971;SDS011;52726;48.852;9.152;2023-07-24T14:40:34;7.03;;;3.65;;
65971;SDS011;52726;48.852;9.152;2023-07-24T14:42:59;4.90;;;2.97;;
65971;SDS011;52726;48.852;9.152;2023-07-24T14:45:25;4.70;;;3.00;;
65971;SDS011;52726;48.852;9.152;2023-07-24T14:47:50;4.28;;;3.05;;